Durango, Mexico

4:13 PM EST on February 27, 2015 (GMT -0500)
Durango | Change Station
CLOSE
Current Station
Airport
Location: Durango,
Elevation: 6093 ft
Nearby Weather Stations

Elev 6093 ft 24.12 °N, 104.53 °W | Updated 24 minutes ago

Clear
Clear
73 °F
Feels Like 73 °F
N
12
Wind Variable Wind from South

Today
High -- | Low -- °F
--% Chance of Precip.
Yesterday
High -- | Low -- °F
Precip. -- in
8:22 AM 7:59 PM
Waxing Gibbous, 71% visible
Pressure 29.64 in
Visibility 14.0 miles
Clouds Clear
Dew Point 9 °F
Humidity 8%
Rainfall 0.00 in
Snow Depth Not available.
UV 8 out of 12
Pollen Not available.
Air Quality Not available.
Flu Activity Not available.
METAR MMDO 272049Z 18010KT 14SM SKC 23/M13 A2997 RMK SLP036 57026 956 ISOL AC-CI RTS

More Conditions Fewer Conditions

Pressure 29.64 in
Visibility 14.0 miles
Clouds Clear
Dew Point 9 °F
Humidity 8%
Rainfall 0.00 in
Snow Depth Not available.
UV 8 out of 12
Pollen Not available.
Air Quality Not available.
Flu Activity Not available.
METAR MMDO 272049Z 18010KT 14SM SKC 23/M13 A2997 RMK SLP036 57026 956 ISOL AC-CI RTS

More Conditions Fewer Conditions

10-Day Weather Forecast

Almanac

Astronomy

Feb. 27, 2015 Rise Set
Actual Time
Civil Twilight
Nautical Twilight
Astronomical Twilight
Moon
Length of Visible Light
Length of Day
Tomorrow will be .
, % of the Moon is Illuminated

Today's Extremes

Country Highs Country Lows

Community

WunderPhotos

Upload Photos

1,800,828 photos uploaded!

WunderBlogs® & News

Nearby

Air Quality

  Air Quality AQ Index Pollutant
Not available.

Snow Depth

Station Depth Elevation

Earthquake Activity

City Distance Mag. Time & Date
Minimum magnitude displayed is 2.5.

Coastal Water Temperatures

Place Temperature

Nearby Weather Stations